createdAt,value
2019-01-19T00:00:30.028Z,133.20
2019-01-19T00:04:04.398Z,143.33
2019-01-19T00:07:00.668Z,134.33
2019-01-19T00:10:17.533Z,139.03
2019-01-19T00:13:47.616Z,146.53
2019-01-19T00:17:28.666Z,141.70
2019-01-19T00:20:52.152Z,143.13
2019-01-19T00:24:19.227Z,141.77
2019-01-19T00:27:31.514Z,139.93
2019-01-19T00:30:59.798Z,142.67
2019-01-19T00:34:04.049Z,139.10
2019-01-19T00:37:01.091Z,155.07
2019-01-19T00:40:36.971Z,145.20
2019-01-19T00:43:58.486Z,142.33
2019-01-19T00:47:17.238Z,146.87
2019-01-19T00:49:59.557Z,144.97
2019-01-19T00:52:56.423Z,153.43
2019-01-19T00:56:07.503Z,145.80
2019-01-19T00:59:08.030Z,145.73
2019-01-19T01:02:07.037Z,150.77
2019-01-19T01:05:34.887Z,146.73
2019-01-19T01:09:08.180Z,159.77
2019-01-19T01:12:31.720Z,161.73
2019-01-19T01:15:25.561Z,152.97
2019-01-19T01:18:36.771Z,167.70
2019-01-19T01:25:22.679Z,152.63
2019-01-19T01:28:30.980Z,159.37
2019-01-19T01:31:53.128Z,149.17
2019-01-19T01:34:59.702Z,155.77
2019-01-19T01:38:15.357Z,162.97
2019-01-19T01:41:45.679Z,152.03
2019-01-19T01:44:54.624Z,150.20
2019-01-19T01:48:16.140Z,164.67
2019-01-19T01:51:19.983Z,150.00
2019-01-19T01:54:38.433Z,142.87
2019-01-19T01:57:42.128Z,148.90
2019-01-19T02:00:51.174Z,149.03
2019-01-19T02:04:21.129Z,152.90
2019-01-19T02:07:28.282Z,151.77
2019-01-19T02:10:39.785Z,145.73
2019-01-19T02:13:33.503Z,149.10
2019-01-19T02:17:24.064Z,150.23
2019-01-19T02:20:30.293Z,151.03
2019-01-19T02:23:25.742Z,151.00
2019-01-19T02:26:43.217Z,145.47
2019-01-19T02:30:19.114Z,141.10
2019-01-19T02:33:30.171Z,145.97
2019-01-19T02:37:07.956Z,137.40
2019-01-19T02:40:18.876Z,134.00
2019-01-19T02:43:22.449Z,146.83
2019-01-19T02:46:11.045Z,134.67
2019-01-19T02:49:45.281Z,133.83
2019-01-19T02:52:52.522Z,154.13
2019-01-19T02:56:03.666Z,141.20
2019-01-19T02:59:39.804Z,140.10
2019-01-19T03:02:47.786Z,151.10
2019-01-19T03:05:40.436Z,139.90
2019-01-19T03:09:10.492Z,144.87
2019-01-19T03:12:34.331Z,146.60
2019-01-19T03:15:37.914Z,138.07
2019-01-19T03:19:24.958Z,145.80
2019-01-19T03:22:08.318Z,138.33
2019-01-19T03:25:25.198Z,145.10
2019-01-19T03:29:00.330Z,147.93
2019-01-19T03:32:18.092Z,144.17
2019-01-19T03:35:47.807Z,143.40
2019-01-19T03:39:03.019Z,142.43
2019-01-19T03:42:31.863Z,143.27
2019-01-19T03:45:17.070Z,140.90
2019-01-19T03:48:13.162Z,157.80
2019-01-19T03:51:41.726Z,147.60
2019-01-19T03:54:53.270Z,144.27
2019-01-19T03:57:32.175Z,152.90
2019-01-19T04:00:41.071Z,144.07
2019-01-19T04:03:51.317Z,144.17
2019-01-19T04:07:00.366Z,142.77
2019-01-19T04:10:07.695Z,142.30
2019-01-19T04:13:35.581Z,154.50
2019-01-19T04:17:23.508Z,139.60
2019-01-19T04:20:43.762Z,140.67
2019-01-19T04:23:11.146Z,147.70
2019-01-19T04:26:35.778Z,140.60
2019-01-19T04:29:03.336Z,140.60
2019-01-19T04:31:30.924Z,145.03
2019-01-19T04:33:59.350Z,146.07
2019-01-19T04:36:27.778Z,141.67
2019-01-19T04:38:55.405Z,152.83
2019-01-19T04:41:22.906Z,150.10
2019-01-19T04:43:50.428Z,158.93
2019-01-19T04:46:18.068Z,139.93
2019-01-19T04:48:45.821Z,147.47
2019-01-19T04:51:13.178Z,141.93
2019-01-19T04:53:40.523Z,147.40
2019-01-19T04:56:08.124Z,138.47
2019-01-19T04:58:35.679Z,152.83
2019-01-19T05:01:03.377Z,146.27
2019-01-19T05:03:30.746Z,143.40
2019-01-19T05:05:58.281Z,139.80
2019-01-19T05:08:25.843Z,142.33
2019-01-19T05:10:53.478Z,144.33
2019-01-19T05:13:21.544Z,140.47
2019-01-19T05:15:48.859Z,146.63
2019-01-19T05:18:16.830Z,145.37
2019-01-19T05:20:44.393Z,143.63
2019-01-19T05:23:11.933Z,150.07
2019-01-19T05:25:39.416Z,149.00
2019-01-19T05:28:07.330Z,148.47
2019-01-19T05:30:34.909Z,150.80
2019-01-19T05:33:02.395Z,151.00
2019-01-19T05:35:30.051Z,143.83
2019-01-19T05:37:57.714Z,155.40
2019-01-19T05:40:25.131Z,144.10
2019-01-19T05:42:53.899Z,159.20
2019-01-19T05:45:21.302Z,147.70
2019-01-19T05:47:49.061Z,149.70
2019-01-19T05:50:19.963Z,149.80
2019-01-19T05:52:47.644Z,161.10
2019-01-19T05:55:15.439Z,149.33
2019-01-19T05:57:43.079Z,160.30
2019-01-19T06:00:21.968Z,152.17
2019-01-19T06:02:49.654Z,160.00
2019-01-19T06:05:17.509Z,152.40
2019-01-19T06:07:45.150Z,154.30
2019-01-19T06:10:14.151Z,147.27
2019-01-19T06:12:41.530Z,154.43
2019-01-19T06:15:11.828Z,144.50
2019-01-19T06:17:39.407Z,153.47
2019-01-19T06:20:08.780Z,140.40
2019-01-19T06:22:36.551Z,151.87
2019-01-19T06:25:05.536Z,146.27
2019-01-19T06:27:33.340Z,153.20
2019-01-19T06:30:00.725Z,154.80
2019-01-19T06:32:28.463Z,156.43
2019-01-19T06:34:55.983Z,141.47
2019-01-19T06:37:23.528Z,164.00
2019-01-19T06:39:51.930Z,140.07
2019-01-19T06:42:19.373Z,150.70
2019-01-19T06:44:46.848Z,146.50
2019-01-19T06:47:14.360Z,150.17
2019-01-19T06:49:41.869Z,148.00
2019-01-19T06:52:11.042Z,154.33
2019-01-19T06:54:38.866Z,146.03
2019-01-19T06:57:06.229Z,151.27
2019-01-19T06:59:34.583Z,145.13
2019-01-19T07:02:02.782Z,147.10
2019-01-19T07:04:30.112Z,156.43
2019-01-19T07:07:02.519Z,146.83
2019-01-19T07:09:27.610Z,141.23
2019-01-19T07:11:55.756Z,137.63
2019-01-19T07:14:23.159Z,162.07
2019-01-19T07:16:50.891Z,137.10
2019-01-19T07:19:18.437Z,138.57
2019-01-19T07:21:46.066Z,148.13
2019-01-19T07:24:13.514Z,141.27
2019-01-19T07:26:41.411Z,141.07
2019-01-19T07:29:09.030Z,145.80
2019-01-19T07:31:36.526Z,139.93
2019-01-19T07:34:04.161Z,141.07
2019-01-19T07:36:32.230Z,144.40
2019-01-19T07:38:59.718Z,144.60
2019-01-19T07:41:29.410Z,148.30
2019-01-19T07:44:01.681Z,136.13
2019-01-19T07:46:30.500Z,145.07
2019-01-19T07:49:00.734Z,147.70
2019-01-19T07:51:28.227Z,144.53
2019-01-19T07:54:05.681Z,145.23
2019-01-19T07:56:33.283Z,145.13
2019-01-19T07:59:01.254Z,142.03
2019-01-19T08:01:28.843Z,138.47
2019-01-19T08:04:04.044Z,140.17
2019-01-19T08:06:38.484Z,162.43
2019-01-19T08:09:08.556Z,149.90
2019-01-19T08:11:36.080Z,150.50
2019-01-19T08:14:05.782Z,159.97
2019-01-19T08:16:35.844Z,168.33
2019-01-19T08:19:03.649Z,145.50
2019-01-19T08:21:31.275Z,155.57
2019-01-19T08:23:59.304Z,163.93
2019-01-19T08:26:27.817Z,161.30
2019-01-19T08:28:55.777Z,159.83
2019-01-19T08:31:24.842Z,152.23
2019-01-19T08:33:53.293Z,161.67
2019-01-19T08:36:21.090Z,163.90
2019-01-19T08:38:48.770Z,163.80
2019-01-19T08:41:16.539Z,163.60
2019-01-19T08:43:50.791Z,153.20
2019-01-19T08:46:18.378Z,163.40
2019-01-19T08:48:47.599Z,163.17
2019-01-19T08:51:15.313Z,166.37
2019-01-19T08:53:42.794Z,160.23
2019-01-19T08:56:10.595Z,162.37
2019-01-19T08:58:38.167Z,161.43
2019-01-19T09:01:05.760Z,157.07
2019-01-19T09:03:33.253Z,154.50
2019-01-19T09:06:00.641Z,157.53
2019-01-19T09:08:28.131Z,157.83
2019-01-19T09:10:55.585Z,153.83
2019-01-19T09:13:23.261Z,157.63
2019-01-19T09:15:56.464Z,157.20
2019-01-19T09:18:24.025Z,165.27
2019-01-19T09:20:51.361Z,162.00
2019-01-19T09:23:26.727Z,156.80
2019-01-19T09:25:54.309Z,161.03
2019-01-19T09:28:21.705Z,159.43
2019-01-19T09:30:49.036Z,154.30
2019-01-19T09:33:17.129Z,165.47
2019-01-19T09:35:45.129Z,155.57
2019-01-19T09:38:12.731Z,167.67
2019-01-19T09:40:40.314Z,158.90
2019-01-19T09:43:07.872Z,171.50
2019-01-19T09:45:37.726Z,163.00
2019-01-19T09:48:05.254Z,156.30
2019-01-19T09:50:32.871Z,158.83
2019-01-19T09:53:00.765Z,161.53
2019-01-19T09:55:28.417Z,155.63
2019-01-19T09:57:56.311Z,163.20
2019-01-19T10:00:23.891Z,157.67
2019-01-19T10:02:54.942Z,162.73
2019-01-19T10:05:22.464Z,155.53
2019-01-19T10:07:49.983Z,181.17
2019-01-19T10:10:17.823Z,163.80
2019-01-19T10:12:45.351Z,181.83
2019-01-19T10:15:14.301Z,161.27
2019-01-19T10:17:42.817Z,176.73
2019-01-19T10:20:14.192Z,165.87
2019-01-19T10:22:41.770Z,178.37
2019-01-19T10:25:10.506Z,181.70
2019-01-19T10:27:38.159Z,177.70
2019-01-19T10:30:10.667Z,169.13
2019-01-19T10:32:38.353Z,170.17
2019-01-19T10:35:08.153Z,164.97
2019-01-19T10:37:36.514Z,176.37
2019-01-19T10:40:05.458Z,176.30
2019-01-19T10:42:32.951Z,172.03
2019-01-19T10:45:00.754Z,168.03
2019-01-19T10:47:28.237Z,170.87
2019-01-19T10:49:56.634Z,168.90
2019-01-19T10:52:24.233Z,178.93
2019-01-19T10:54:51.591Z,172.63
2019-01-19T10:57:18.969Z,163.70
2019-01-19T10:59:46.404Z,163.80
2019-01-19T11:02:13.857Z,172.03
2019-01-19T11:04:41.568Z,167.10
2019-01-19T11:07:09.086Z,181.03
2019-01-19T11:09:36.535Z,170.63
2019-01-19T11:12:05.258Z,167.13
2019-01-19T11:14:32.718Z,169.47
2019-01-19T11:17:00.274Z,162.33
2019-01-19T11:19:27.621Z,167.80
2019-01-19T11:21:54.975Z,160.33
2019-01-19T11:24:22.528Z,169.97
2019-01-19T11:26:50.116Z,163.63
2019-01-19T11:29:17.563Z,160.13
2019-01-19T11:31:45.008Z,164.63
2019-01-19T11:34:12.538Z,151.77
2019-01-19T11:36:40.522Z,156.77
2019-01-19T11:39:08.183Z,152.63
2019-01-19T11:41:36.942Z,156.30
2019-01-19T11:44:06.590Z,155.53
2019-01-19T11:46:34.053Z,151.50
2019-01-19T11:49:04.676Z,153.43
2019-01-19T11:51:32.513Z,153.30
2019-01-19T11:54:00.414Z,153.40
2019-01-19T11:56:27.912Z,159.37
2019-01-19T11:58:55.501Z,154.13
2019-01-19T12:01:22.904Z,158.87
2019-01-19T12:03:50.317Z,157.73
2019-01-19T12:06:17.767Z,153.40
2019-01-19T12:08:45.259Z,155.90
2019-01-19T12:11:12.635Z,159.83
2019-01-19T12:13:40.366Z,157.70
2019-01-19T12:16:09.812Z,159.50
2019-01-19T12:18:37.690Z,158.00
2019-01-19T12:21:05.197Z,165.03
2019-01-19T12:23:32.903Z,168.57
2019-01-19T12:26:00.366Z,164.43
2019-01-19T12:28:28.010Z,156.40
2019-01-19T12:30:55.515Z,163.77
2019-01-19T12:33:22.969Z,155.83
2019-01-19T12:35:50.373Z,158.73
2019-01-19T12:38:17.756Z,156.60
2019-01-19T12:40:45.137Z,152.60
2019-01-19T12:43:18.865Z,155.60
2019-01-19T12:45:53.333Z,167.47
2019-01-19T12:48:20.880Z,155.13
2019-01-19T12:50:48.612Z,153.33
2019-01-19T12:53:16.075Z,154.60
2019-01-19T12:55:43.688Z,153.77
2019-01-19T12:58:11.384Z,158.17
2019-01-19T13:00:39.008Z,168.00
2019-01-19T13:03:07.058Z,156.73
2019-01-19T13:05:46.435Z,153.97
2019-01-19T13:08:17.182Z,162.87
2019-01-19T13:10:51.065Z,157.10
2019-01-19T13:13:29.878Z,163.33
2019-01-19T13:17:09.952Z,160.93
2019-01-19T13:20:37.360Z,159.00
2019-01-19T13:24:15.075Z,163.60
2019-01-19T13:27:34.594Z,157.83
2019-01-19T13:30:42.676Z,152.47
2019-01-19T13:34:32.799Z,151.47
2019-01-19T13:37:42.016Z,154.17
2019-01-19T13:40:51.468Z,151.20
2019-01-19T13:44:43.697Z,158.33
2019-01-19T13:47:55.545Z,151.57
2019-01-19T13:51:13.815Z,153.20
2019-01-19T13:54:41.747Z,148.33
2019-01-19T13:58:09.426Z,159.33
2019-01-19T14:01:23.443Z,153.10
2019-01-19T14:04:53.434Z,151.57
2019-01-19T14:08:32.920Z,153.33
2019-01-19T14:11:19.958Z,151.53
2019-01-19T14:14:42.069Z,147.90
2019-01-19T14:18:06.767Z,156.87
2019-01-19T14:21:03.069Z,151.37
2019-01-19T14:24:01.808Z,151.63
2019-01-19T14:27:02.826Z,149.93
2019-01-19T14:30:13.028Z,146.00
2019-01-19T14:33:16.120Z,163.67
2019-01-19T14:37:00.273Z,150.07
2019-01-19T14:40:25.008Z,149.70
2019-01-19T14:44:33.823Z,159.17
2019-01-19T14:46:55.727Z,148.87
2019-01-19T14:50:26.500Z,151.87
2019-01-19T14:53:32.779Z,153.67
2019-01-19T14:57:10.672Z,142.40
2019-01-19T15:00:14.498Z,141.30
2019-01-19T15:03:29.278Z,153.70
2019-01-19T15:06:17.702Z,140.50
2019-01-19T15:09:05.767Z,142.30
2019-01-19T15:12:33.931Z,139.73
2019-01-19T15:16:01.842Z,143.53
2019-01-19T15:18:57.821Z,142.17
2019-01-19T15:22:53.106Z,147.60
2019-01-19T15:26:22.542Z,149.23
2019-01-19T15:29:46.945Z,147.43
2019-01-19T15:33:19.455Z,169.07
2019-01-19T15:36:50.018Z,140.00
2019-01-19T15:40:05.492Z,148.37
2019-01-19T15:42:46.191Z,161.93
2019-01-19T15:46:02.990Z,146.40
2019-01-19T15:49:01.236Z,143.67
2019-01-19T15:52:16.286Z,135.30
2019-01-19T15:55:38.219Z,142.37
2019-01-19T15:58:42.282Z,154.77
2019-01-19T16:01:59.492Z,151.80
2019-01-19T16:04:51.207Z,146.43
2019-01-19T16:08:05.668Z,156.43
2019-01-19T16:10:52.547Z,153.37
2019-01-19T16:13:36.954Z,152.97
2019-01-19T16:16:59.492Z,142.20
2019-01-19T16:20:39.044Z,147.40
2019-01-19T16:24:00.039Z,150.87
2019-01-19T16:27:16.353Z,152.13
2019-01-19T16:30:29.660Z,147.60
2019-01-19T16:33:41.402Z,146.50
2019-01-19T16:36:48.758Z,154.87
2019-01-19T16:40:10.307Z,152.43
2019-01-19T16:43:21.838Z,160.27
2019-01-19T16:47:17.184Z,151.03
2019-01-19T16:50:42.678Z,160.63
2019-01-19T16:54:18.942Z,148.80
2019-01-19T16:58:14.112Z,149.90
2019-01-19T17:01:14.312Z,164.10
2019-01-19T17:04:23.939Z,158.30
2019-01-19T17:07:27.595Z,177.40
2019-01-19T17:10:33.993Z,169.50
2019-01-19T17:13:39.153Z,184.50
2019-01-19T17:16:49.729Z,178.87
2019-01-19T17:24:51.796Z,175.03
2019-01-19T17:28:07.345Z,192.40
2019-01-19T17:31:12.909Z,168.50
2019-01-19T17:34:17.887Z,200.30
2019-01-19T17:37:25.756Z,170.90
2019-01-19T17:41:06.819Z,185.77
2019-01-19T17:44:23.957Z,188.73
2019-01-19T17:47:49.547Z,197.30
2019-01-19T17:51:04.995Z,194.83
2019-01-19T17:54:07.870Z,187.60
2019-01-19T17:56:46.261Z,185.43
2019-01-19T18:00:31.894Z,198.00
2019-01-19T18:04:00.614Z,210.60
2019-01-19T18:07:19.316Z,211.53
2019-01-19T18:10:39.382Z,210.30
2019-01-19T18:13:55.067Z,225.17
2019-01-19T18:17:41.769Z,210.93
2019-01-19T18:20:55.859Z,229.43
2019-01-19T18:23:59.328Z,210.60
2019-01-19T18:26:41.769Z,216.57
2019-01-19T18:30:23.517Z,213.77
2019-01-19T18:33:47.246Z,212.30
2019-01-19T18:36:40.468Z,207.27
2019-01-19T18:40:13.876Z,207.50
2019-01-19T18:43:08.260Z,221.90
2019-01-19T18:46:05.871Z,213.23
2019-01-19T18:49:31.739Z,219.13
2019-01-19T18:52:42.597Z,215.37
2019-01-19T18:56:14.617Z,207.10
2019-01-19T18:59:23.078Z,219.23
2019-01-19T19:02:26.113Z,211.63
2019-01-19T19:05:49.137Z,213.17
2019-01-19T19:09:26.849Z,214.63
2019-01-19T19:12:29.204Z,198.10
2019-01-19T19:16:05.914Z,229.27
2019-01-19T19:19:10.248Z,225.43
2019-01-19T19:22:09.832Z,227.80
2019-01-19T19:25:06.661Z,229.33
2019-01-19T19:28:21.638Z,242.27
2019-01-19T19:31:35.143Z,217.33
2019-01-19T19:34:56.418Z,223.33
2019-01-19T19:38:21.986Z,228.00
2019-01-19T19:41:41.418Z,224.57
2019-01-19T19:45:11.841Z,208.00
2019-01-19T19:48:45.801Z,253.50
2019-01-19T19:51:59.407Z,221.20
2019-01-19T19:54:30.285Z,214.20
2019-01-19T19:56:58.474Z,218.13
2019-01-19T19:59:27.367Z,218.17
2019-01-19T20:01:57.218Z,232.33
2019-01-19T20:04:28.892Z,238.97
2019-01-19T20:06:57.665Z,238.50
2019-01-19T20:09:25.407Z,236.57
2019-01-19T20:11:57.043Z,245.90
2019-01-19T20:14:24.852Z,230.83
2019-01-19T20:16:53.081Z,237.23
2019-01-19T20:19:20.712Z,253.30
2019-01-19T20:21:48.718Z,243.60
2019-01-19T20:24:16.838Z,250.50
2019-01-19T20:26:44.496Z,237.77
2019-01-19T20:29:16.831Z,223.80
2019-01-19T20:31:47.616Z,248.47
2019-01-19T20:34:15.934Z,236.57
2019-01-19T20:36:44.682Z,246.90
2019-01-19T20:39:30.526Z,239.73
2019-01-19T20:41:58.934Z,250.77
2019-01-19T20:44:27.215Z,243.30
2019-01-19T20:46:57.882Z,228.60
2019-01-19T20:49:25.812Z,248.90
2019-01-19T20:51:53.413Z,229.43
2019-01-19T20:54:21.824Z,230.67
2019-01-19T20:56:49.244Z,258.73
2019-01-19T20:59:16.833Z,240.03
2019-01-19T21:01:44.704Z,240.97
2019-01-19T21:04:15.985Z,242.13
2019-01-19T21:06:55.488Z,258.80
2019-01-19T21:09:28.153Z,256.63
2019-01-19T21:11:56.911Z,254.63
2019-01-19T21:14:24.900Z,241.43
2019-01-19T21:16:53.374Z,238.47
2019-01-19T21:19:20.825Z,249.53
2019-01-19T21:21:48.289Z,253.33
2019-01-19T21:24:16.674Z,248.90
2019-01-19T21:26:44.711Z,246.13
2019-01-19T21:29:12.105Z,256.50
2019-01-19T21:31:39.746Z,246.97
2019-01-19T21:34:07.114Z,264.43
2019-01-19T21:36:34.751Z,249.97
2019-01-19T21:39:07.379Z,240.20
2019-01-19T21:41:35.593Z,240.90
2019-01-19T21:44:03.727Z,236.30
2019-01-19T21:46:32.162Z,243.40
2019-01-19T21:48:59.524Z,235.60
2019-01-19T21:51:27.033Z,232.73
2019-01-19T21:53:54.506Z,235.03
2019-01-19T21:56:21.942Z,241.53
2019-01-19T21:58:50.217Z,238.67
2019-01-19T22:01:17.685Z,251.97
2019-01-19T22:03:45.383Z,239.83
2019-01-19T22:06:12.883Z,242.97
2019-01-19T22:08:40.686Z,246.87
2019-01-19T22:11:08.469Z,232.90
2019-01-19T22:13:35.915Z,250.13
2019-01-19T22:16:05.275Z,241.67
2019-01-19T22:18:33.738Z,241.43
2019-01-19T22:21:01.171Z,241.13
2019-01-19T22:23:28.624Z,255.13
2019-01-19T22:25:56.544Z,252.27
2019-01-19T22:28:24.477Z,266.93
2019-01-19T22:30:52.046Z,259.33
2019-01-19T22:33:19.923Z,252.57
2019-01-19T22:35:47.536Z,257.80
2019-01-19T22:38:15.171Z,259.03
2019-01-19T22:40:42.646Z,258.93
2019-01-19T22:43:15.726Z,269.70
2019-01-19T22:45:43.150Z,257.40
2019-01-19T22:48:11.010Z,272.23
2019-01-19T22:50:38.368Z,255.43
2019-01-19T22:53:05.848Z,262.33
2019-01-19T22:55:33.220Z,256.97
2019-01-19T22:58:00.584Z,257.73
2019-01-19T23:00:59.357Z,258.17
2019-01-19T23:03:30.081Z,252.87
2019-01-19T23:05:57.649Z,252.17
2019-01-19T23:08:25.329Z,248.43
2019-01-19T23:10:52.924Z,253.90
2019-01-19T23:13:20.357Z,252.90
2019-01-19T23:15:47.944Z,274.03
2019-01-19T23:18:15.642Z,259.63
2019-01-19T23:20:43.166Z,267.40
2019-01-19T23:23:10.613Z,250.83
2019-01-19T23:25:37.947Z,262.03
2019-01-19T23:28:05.792Z,243.70
2019-01-19T23:30:33.240Z,255.77
2019-01-19T23:33:01.258Z,253.63
2019-01-19T23:35:29.076Z,258.70
2019-01-19T23:37:56.525Z,287.63
2019-01-19T23:40:24.088Z,260.03
2019-01-19T23:42:51.706Z,265.90
2019-01-19T23:45:19.682Z,250.20
2019-01-19T23:47:47.273Z,257.97
2019-01-19T23:50:14.874Z,259.13
2019-01-19T23:52:42.433Z,265.20
2019-01-19T23:55:10.128Z,254.70
2019-01-19T23:57:37.604Z,259.70
